Impacts METAR Board
IDs:

KSAN - San Diego Intl Arpt, CA, US

Updated at: 0700 UTC 07 Dec 2022
Potential Impact None Slight Moderate High
Time 06/19Z 06/20Z 06/21Z 06/22Z 06/23Z 07/00Z 07/01Z 07/02Z 07/03Z 07/04Z 07/05Z 07/06Z 07/07Z
Temp62 62 63 61 61 60 59 58 58 58 56 54 55
Dewpt49 48 47 48 47 48 48 48 47 47 46 46 46
Altim30.10 30.07 30.05 30.05 30.05 30.04 30.06 30.07 30.08 30.09 30.09 30.11 30.11
VIS10 10 10 10 10 10 10 10 10 10 10 10 10
CIG21 26 40 26 130 120 110 130 130 140 250 140 --
CoverBKNBKNBKNBKNBKNBKNBKNBKNBKNBKNBKNBKNSCT
FltCatMVFRMVFRVFRMVFRVFRVFRVFRVFRVFRVFRVFRVFRVFR
WX--------------------------
WDir23027028028031003003103003003000310
WSpd6 7 9 7 6 4 3 4 4 3 3 0 4
WGst-- -- 14 -- -- -- -- -- -- -- -- -- --
Raw hourly METARs
KSAN 061851Z 23006KT 10SM BKN021 BKN031 BKN042 17/09 A3010 RMK AO2 SLP191 T01670094
KSAN 061951Z 27007KT 10SM BKN026 BKN040 BKN250 17/09 A3007 RMK AO2 SLP182 T01670089
KSAN 062051Z 28009G14KT 10SM SCT026 BKN040 BKN140 BKN250 17/08 A3005 RMK AO2 SLP176 T01720083 58020
KSAN 062151Z 28007KT 10SM BKN026 BKN040 BKN130 16/09 A3005 RMK AO2 SLP174 T01610089
KSAN 062251Z 31006KT 10SM FEW020 SCT040 BKN130 16/08 A3005 RMK AO2 SLP175 T01610083
KSAN 062351Z VRB04KT 10SM SCT025 BKN120 BKN250 16/09 A3004 RMK AO2 SLP173 T01560089 10172 20150 58003
KSAN 070051Z 30003KT 10SM SCT025 BKN110 BKN250 15/09 A3006 RMK AO2 SLP177 T01500089
KSAN 070151Z 31004KT 10SM FEW025 BKN130 BKN200 14/09 A3007 RMK AO2 SLP181 T01440089
KSAN 070251Z 30004KT 10SM FEW025 BKN130 BKN200 14/08 A3008 RMK AO2 SLP184 T01440083 51011
KSAN 070351Z 30003KT 10SM FEW025 BKN140 BKN200 14/08 A3009 RMK AO2 SLP188 T01440083
KSAN 070451Z 30003KT 10SM FEW025 SCT140 BKN250 13/08 A3009 RMK AO2 SLP190 T01330078
KSAN 070551Z 00000KT 10SM SCT028 BKN140 12/08 A3011 RMK AO2 SLP196 T01220078 10156 20122 53012
KSAN 070651Z 31004KT 10SM SCT029 SCT140 13/08 A3011 RMK AO2 SLP196 T01280078



Page loaded:  07:09 UTC  |   11:09 PM Pacific  |   12:09 AM Mountain  |   01:09 AM Central  |   02:09 AM Eastern

 

ADVISORIES

FORECASTS

FORECASTS

OBSERVATIONS

USER TOOLS

ABOUT US